Terminal Aerodrome Forecast
Issued by NWS Grand Forks, ND

Home | Current Version | Previous Version | Text Only | Print | Product List | Glossary Off
Versions: 1 2 3 4 5 6 7 8 9 10 11 12 13 14 15 16 17

000
FTUS43 KFGF 221512 AAA
TAFFAR
TAF AMD
KFAR 221512Z 2215/2312 30016KT P6SM SCT060
     FM221800 33015G34KT P6SM VCSH BKN030
     FM230300 34008KT P6SM BKN030
     FM230500 34008KT P6SM OVC015=

USA.gov is the U.S. government's official web portal to all federal, state and local government web resources and services.